Time;durP1;ratioP1;P1;durP2;ratioP2;P2;SDS_P1;SDS_P2;PMS_P1;PMS_P2;Temp;Humidity;BMP_temperature;BMP_pressure;BME280_temperature;BME280_humidity;BME280_pressure;Samples;Min_cycle;Max_cycle;Signal;HPM_P1;HPM_P2
2023/01/05 00:01:12;;;;;;;12.83;2.77;;;20.10;99.90;;;;;;5086019;28;20663;-68
2023/01/05 00:03:41;;;;;;;16.57;2.50;;;20.10;99.90;;;;;;5092196;28;20636;-67
2023/01/05 00:06:12;;;;;;;12.83;2.73;;;20.10;99.90;;;;;;5080782;28;20232;-67
2023/01/05 00:08:41;;;;;;;14.63;2.83;;;20.00;99.90;;;;;;5085954;28;20248;-66
2023/01/05 00:22:33;;;;;;;19.20;3.50;;;20.20;99.90;;;;;;5071172;28;20653;-67
2023/01/05 00:25:06;;;;;;;12.60;2.60;;;20.30;99.90;;;;;;5089295;28;20212;-68
2023/01/05 00:27:34;;;;;;;16.47;2.83;;;20.40;99.90;;;;;;5091698;28;20183;-69
2023/01/05 00:30:02;;;;;;;13.17;2.33;;;20.40;99.90;;;;;;5091217;28;20179;-67
2023/01/05 00:32:30;;;;;;;13.60;3.20;;;20.40;99.90;;;;;;5090928;28;20188;-67
2023/01/05 00:34:59;;;;;;;14.70;3.00;;;20.50;99.90;;;;;;5071626;28;20188;-69
2023/01/05 00:37:30;;;;;;;15.10;3.23;;;20.40;99.90;;;;;;5070960;28;20216;-67
2023/01/05 00:39:58;;;;;;;13.30;2.30;;;20.30;99.90;;;;;;5071542;28;20553;-68
2023/01/05 00:42:26;;;;;;;10.10;1.90;;;20.20;99.90;;;;;;5071289;28;20634;-67
2023/01/05 00:44:54;;;;;;;16.80;2.90;;;20.20;99.90;;;;;;5086780;28;20179;-68
2023/01/05 00:47:21;;;;;;;12.93;2.33;;;20.20;99.90;;;;;;5071134;28;20651;-67
2023/01/05 00:49:49;;;;;;;12.80;3.43;;;20.20;99.90;;;;;;5071556;28;20575;-68
2023/01/05 00:52:17;;;;;;;9.07;2.20;;;20.20;99.90;;;;;;5070799;28;20232;-68
2023/01/05 00:54:45;;;;;;;15.97;3.00;;;20.30;99.90;;;;;;5071514;28;20269;-67
2023/01/05 00:57:13;;;;;;;12.67;2.53;;;20.50;99.90;;;;;;5070825;28;20550;-67
2023/01/05 00:59:41;;;;;;;11.77;3.00;;;20.60;99.90;;;;;;5070946;28;20266;-68
2023/01/05 01:02:10;;;;;;;12.63;3.00;;;20.60;99.90;;;;;;5082178;28;20191;-67
2023/01/05 01:04:37;;;;;;;14.27;3.43;;;20.70;99.90;;;;;;5078759;28;20563;-69
2023/01/05 01:07:06;;;;;;;16.37;2.50;;;20.80;99.90;;;;;;5090064;28;20582;-68
2023/01/05 01:09:34;;;;;;;10.43;2.20;;;20.90;99.90;;;;;;5089554;28;20270;-68
2023/01/05 01:12:02;;;;;;;10.57;2.47;;;20.80;99.90;;;;;;5077211;28;20339;-68
2023/01/05 01:14:30;;;;;;;15.27;3.37;;;20.80;99.90;;;;;;5087870;28;20193;-71
2023/01/05 01:16:58;;;;;;;11.53;2.40;;;20.80;99.90;;;;;;5093738;28;20310;-77
2023/01/05 01:19:26;;;;;;;8.93;2.30;;;20.80;99.90;;;;;;5093707;28;20179;-71
2023/01/05 01:21:54;;;;;;;14.27;2.30;;;20.80;99.90;;;;;;5093991;28;20245;-74
2023/01/05 01:24:26;;;;;;;8.10;1.87;;;21.00;99.90;;;;;;5095131;28;20211;-70
2023/01/05 01:26:54;;;;;;;14.90;2.63;;;21.00;99.90;;;;;;5094964;28;20205;-69
2023/01/05 01:29:23;;;;;;;15.00;2.67;;;21.10;99.90;;;;;;5084103;28;20186;-69
2023/01/05 01:31:52;;;;;;;12.17;2.43;;;21.00;99.90;;;;;;5074486;28;20209;-71
2023/01/05 01:34:22;;;;;;;8.80;2.27;;;20.90;99.90;;;;;;5093878;28;20184;-68
2023/01/05 01:36:49;;;;;;;7.37;2.00;;;21.00;99.90;;;;;;5094394;28;20207;-67
2023/01/05 01:39:17;;;;;;;11.53;2.40;;;21.00;99.90;;;;;;5094773;28;20179;-77
2023/01/05 01:41:45;;;;;;;13.63;2.47;;;21.10;99.90;;;;;;5093282;28;20197;-74
2023/01/05 01:44:49;;;;;;;12.23;2.23;;;21.10;99.90;;;;;;5075562;28;20212;-68
2023/01/05 01:47:25;;;;;;;11.27;2.10;;;21.10;99.90;;;;;;5074373;28;20204;-68
2023/01/05 01:49:55;;;;;;;9.40;2.70;;;21.20;99.90;;;;;;5080306;28;20611;-70
2023/01/05 01:52:25;;;;;;;11.37;2.13;;;21.30;99.90;;;;;;5091146;28;20206;-77
2023/01/05 01:54:53;;;;;;;9.73;1.80;;;21.20;99.90;;;;;;5074362;28;20207;-68
2023/01/05 01:57:22;;;;;;;17.70;2.83;;;21.10;99.90;;;;;;5085041;28;20210;-70
2023/01/05 01:59:50;;;;;;;11.90;2.20;;;20.90;99.90;;;;;;5092186;28;20186;-69
2023/01/05 02:02:21;;;;;;;18.60;3.00;;;21.00;99.90;;;;;;5091836;28;20203;-69
2023/01/05 02:04:49;;;;;;;9.13;2.73;;;21.20;99.90;;;;;;5074007;28;20254;-68
2023/01/05 02:07:17;;;;;;;10.00;2.13;;;21.40;99.90;;;;;;5073607;28;20334;-67
2023/01/05 02:09:45;;;;;;;11.77;2.70;;;21.60;99.90;;;;;;5073911;28;20680;-68
2023/01/05 02:12:34;;;;;;;8.80;2.30;;;21.90;99.90;;;;;;5074731;28;20224;-69
2023/01/05 02:15:20;;;;;;;11.20;2.50;;;22.20;99.90;;;;;;5078393;28;20730;-69
2023/01/05 02:18:19;;;;;;;17.20;2.43;;;22.10;99.90;;;;;;5073309;28;20651;-68
2023/01/05 02:20:47;;;;;;;10.37;2.70;;;22.00;99.90;;;;;;5073276;28;20190;-70
2023/01/05 02:23:40;;;;;;;13.03;2.40;;;21.70;99.90;;;;;;5073742;28;20191;-71
2023/01/05 02:26:20;;;;;;;10.07;2.10;;;21.40;99.90;;;;;;5073756;28;20181;-69
2023/01/05 02:29:13;;;;;;;16.17;2.83;;;21.40;99.90;;;;;;5073118;28;20170;-68
2023/01/05 02:32:13;;;;;;;14.43;3.03;;;21.40;99.90;;;;;;5042494;28;20204;-67
2023/01/05 02:34:48;;;;;;;13.23;2.53;;;21.60;99.90;;;;;;5073239;28;20237;-72
2023/01/05 02:37:39;;;;;;;10.87;2.03;;;21.70;99.90;;;;;;5073013;28;20781;-69
2023/01/05 02:40:21;;;;;;;8.33;1.63;;;21.80;99.90;;;;;;5072926;28;20187;-69
2023/01/05 02:42:52;;;;;;;8.80;2.07;;;21.70;99.90;;;;;;5081070;28;20183;-69
2023/01/05 02:45:22;;;;;;;7.60;1.80;;;21.60;99.90;;;;;;5092641;28;20594;-73
2023/01/05 02:47:50;;;;;;;10.73;2.00;;;21.80;99.90;;;;;;5093646;28;20228;-69
2023/01/05 02:50:25;;;;;;;11.23;2.40;;;22.00;99.90;;;;;;5087617;28;20187;-76
2023/01/05 02:53:12;;;;;;;6.10;1.60;;;22.00;99.90;;;;;;5073657;28;20184;-74
2023/01/05 02:55:51;;;;;;;8.87;1.97;;;22.20;99.90;;;;;;5072838;28;20211;-71
2023/01/05 02:58:33;;;;;;;8.00;2.20;;;22.20;99.90;;;;;;5072756;28;20240;-69
2023/01/05 03:01:24;;;;;;;10.73;2.20;;;22.10;99.90;;;;;;5087806;28;20294;-73
2023/01/05 03:04:18;;;;;;;11.73;2.80;;;21.90;99.90;;;;;;5061784;28;20211;-69
2023/01/05 03:06:55;;;;;;;12.87;2.73;;;21.70;99.90;;;;;;5034792;28;20570;-68
2023/01/05 03:09:26;;;;;;;14.63;2.53;;;21.50;99.90;;;;;;5072817;28;20206;-69
2023/01/05 03:15:20;;;;;;;13.90;2.30;;;21.40;99.90;;;;;;5073016;28;20222;-69
2023/01/05 03:17:56;;;;;;;10.87;2.40;;;21.40;99.90;;;;;;5072622;28;20221;-69
2023/01/05 03:20:30;;;;;;;9.80;1.83;;;21.50;99.90;;;;;;5072334;28;20204;-70
2023/01/05 03:37:32;;;;;;;7.83;1.93;;;21.50;99.90;;;;;;5072269;28;20587;-78
2023/01/05 03:40:02;;;;;;;6.50;2.10;;;21.70;99.90;;;;;;5072360;28;20182;-69
2023/01/05 03:42:30;;;;;;;7.60;1.97;;;21.90;99.90;;;;;;5081136;28;20179;-68
2023/01/05 03:44:58;;;;;;;6.37;1.50;;;22.20;99.90;;;;;;5072158;28;20179;-68
2023/01/05 03:47:26;;;;;;;13.73;1.97;;;22.40;99.90;;;;;;5090201;28;20187;-67
2023/01/05 03:49:53;;;;;;;6.63;1.97;;;22.40;99.90;;;;;;5075698;28;20221;-68
2023/01/05 03:52:20;;;;;;;5.83;1.50;;;22.40;99.90;;;;;;5072044;28;20183;-67
2023/01/05 03:54:48;;;;;;;8.23;2.33;;;22.50;99.90;;;;;;5073132;28;20184;-71
2023/01/05 03:57:16;;;;;;;10.17;1.90;;;22.70;99.90;;;;;;5075101;28;20747;-69
2023/01/05 03:59:43;;;;;;;8.97;2.07;;;22.80;99.90;;;;;;5071996;28;20242;-68
2023/01/05 04:02:10;;;;;;;11.13;1.43;;;23.00;99.90;;;;;;5072041;28;20179;-69
2023/01/05 04:04:38;;;;;;;9.87;1.57;;;23.20;99.90;;;;;;5071564;28;20557;-69
2023/01/05 04:07:06;;;;;;;9.63;1.90;;;23.20;99.90;;;;;;5088942;28;20259;-69
2023/01/05 04:09:33;;;;;;;9.47;2.03;;;23.10;99.90;;;;;;5092158;28;20182;-69
2023/01/05 04:12:01;;;;;;;5.33;1.67;;;23.10;99.90;;;;;;5091616;28;20230;-71
2023/01/05 04:14:28;;;;;;;9.80;2.07;;;23.30;99.90;;;;;;5092220;28;20178;-70
2023/01/05 04:16:56;;;;;;;9.73;1.47;;;23.50;99.90;;;;;;5074348;28;20230;-72
2023/01/05 04:19:23;;;;;;;7.07;1.60;;;23.60;99.90;;;;;;5071528;28;20174;-69
2023/01/05 04:21:51;;;;;;;5.83;1.40;;;23.90;99.90;;;;;;5071566;28;20179;-68
2023/01/05 04:24:18;;;;;;;10.30;1.90;;;23.90;99.90;;;;;;5071777;28;20226;-68
2023/01/05 04:26:46;;;;;;;9.93;1.40;;;23.90;99.90;;;;;;5086644;28;20273;-71
2023/01/05 04:29:13;;;;;;;4.20;1.30;;;23.80;99.90;;;;;;5092045;28;20624;-67
2023/01/05 04:31:40;;;;;;;6.33;1.43;;;23.80;99.90;;;;;;5091779;28;20199;-68
2023/01/05 04:34:08;;;;;;;9.40;1.30;;;23.90;99.90;;;;;;5090170;28;20194;-72
2023/01/05 04:36:35;;;;;;;4.83;1.70;;;23.80;99.90;;;;;;5077577;28;20222;-70
2023/01/05 04:39:03;;;;;;;7.03;1.40;;;23.90;99.90;;;;;;5071662;28;20171;-68
2023/01/05 04:41:30;;;;;;;7.67;1.40;;;23.60;99.90;;;;;;5072905;28;20267;-70
2023/01/05 04:43:58;;;;;;;6.57;1.67;;;23.60;99.90;;;;;;5076650;28;20199;-68
2023/01/05 04:46:25;;;;;;;9.27;1.43;;;23.50;99.90;;;;;;5086285;28;20219;-70
2023/01/05 04:48:52;;;;;;;7.30;1.93;;;23.30;99.90;;;;;;5085173;28;20682;-68
2023/01/05 04:51:20;;;;;;;7.80;1.50;;;23.20;99.90;;;;;;5087423;28;20183;-70
2023/01/05 04:53:47;;;;;;;6.83;1.67;;;23.30;99.90;;;;;;5082602;28;20222;-69
2023/01/05 04:56:15;;;;;;;8.00;1.30;;;23.20;99.90;;;;;;5095256;28;20612;-69
2023/01/05 04:58:43;;;;;;;12.10;2.07;;;23.30;99.90;;;;;;5083404;28;20243;-70
2023/01/05 05:01:10;;;;;;;7.43;2.00;;;23.40;99.90;;;;;;5080501;28;20656;-72
2023/01/05 05:03:37;;;;;;;12.93;1.60;;;23.20;99.90;;;;;;5078310;28;20240;-68
2023/01/05 05:06:05;;;;;;;7.53;2.03;;;23.00;99.90;;;;;;5076249;28;20176;-71
2023/01/05 05:08:33;;;;;;;10.67;2.70;;;23.10;99.90;;;;;;5076155;28;20553;-70
2023/01/05 05:11:00;;;;;;;8.30;1.87;;;23.10;99.90;;;;;;5074524;28;20664;-70
2023/01/05 05:13:28;;;;;;;12.73;2.20;;;23.00;99.90;;;;;;5093634;28;20309;-70
2023/01/05 05:15:55;;;;;;;13.67;2.57;;;22.80;99.90;;;;;;5095245;28;20182;-71
2023/01/05 05:18:23;;;;;;;11.60;2.90;;;22.60;99.90;;;;;;5086298;28;20325;-71
2023/01/05 05:20:52;;;;;;;17.63;2.97;;;22.40;99.90;;;;;;5074666;28;20378;-70
2023/01/05 05:23:20;;;;;;;16.93;6.73;;;22.20;99.90;;;;;;5074532;28;20622;-72
2023/01/05 05:25:54;;;;;;;17.87;4.13;;;22.10;99.90;;;;;;5074316;28;20176;-70
2023/01/05 05:28:26;;;;;;;13.37;2.30;;;22.00;99.90;;;;;;5084487;28;20183;-71
2023/01/05 05:30:55;;;;;;;12.10;2.93;;;21.80;99.90;;;;;;5094801;28;20294;-72
2023/01/05 05:33:24;;;;;;;13.83;3.43;;;21.70;99.90;;;;;;5094121;28;20278;-71
2023/01/05 05:35:52;;;;;;;15.17;2.80;;;21.70;99.90;;;;;;5074285;28;20194;-71
2023/01/05 05:38:19;;;;;;;10.57;2.97;;;21.80;99.90;;;;;;5084156;28;20612;-71
2023/01/05 05:40:48;;;;;;;12.13;2.20;;;21.90;99.90;;;;;;5086175;28;20180;-72
2023/01/05 05:43:16;;;;;;;13.83;4.37;;;21.90;99.90;;;;;;5074321;28;20236;-70
2023/01/05 05:45:44;;;;;;;12.47;3.13;;;21.80;99.90;;;;;;5074328;28;20206;-70
2023/01/05 05:48:11;;;;;;;14.70;3.87;;;21.60;99.90;;;;;;5087070;28;20252;-70
2023/01/05 05:50:39;;;;;;;12.70;2.50;;;21.50;99.90;;;;;;5074356;28;20211;-71
2023/01/05 05:53:06;;;;;;;10.13;2.30;;;21.40;99.90;;;;;;5073372;28;20168;-71
2023/01/05 05:55:34;;;;;;;8.80;2.20;;;21.30;99.90;;;;;;5086250;28;20187;-70
2023/01/05 05:58:02;;;;;;;9.57;2.50;;;21.30;99.90;;;;;;5077151;28;20306;-71
2023/01/05 06:00:29;;;;;;;12.73;2.03;;;21.20;99.90;;;;;;5074277;28;20188;-73
2023/01/05 06:02:56;;;;;;;7.47;1.90;;;21.10;99.90;;;;;;5073336;28;20278;-70
2023/01/05 06:05:24;;;;;;;15.60;2.30;;;20.90;99.90;;;;;;5094044;28;20184;-70
2023/01/05 06:07:51;;;;;;;9.70;2.70;;;20.90;99.90;;;;;;5091071;28;20183;-70
2023/01/05 06:10:18;;;;;;;27.27;11.83;;;20.90;99.90;;;;;;5093689;28;20194;-70
2023/01/05 06:12:46;;;;;;;22.13;8.27;;;20.90;99.90;;;;;;5093992;28;20227;-70
2023/01/05 06:15:13;;;;;;;10.77;2.63;;;20.90;99.90;;;;;;5093918;28;20186;-71
2023/01/05 06:17:40;;;;;;;9.43;3.43;;;20.80;99.90;;;;;;5079788;28;20219;-70
2023/01/05 06:20:08;;;;;;;5.63;1.47;;;20.90;99.90;;;;;;5073685;28;20176;-70
2023/01/05 06:22:36;;;;;;;7.23;1.50;;;20.80;99.90;;;;;;5073609;28;20180;-69
2023/01/05 06:25:04;;;;;;;6.10;1.40;;;20.70;99.90;;;;;;5073326;28;20255;-69
2023/01/05 06:27:31;;;;;;;7.40;1.50;;;20.50;99.90;;;;;;5085360;28;20218;-70
2023/01/05 06:29:59;;;;;;;6.20;1.47;;;20.60;99.90;;;;;;5084746;28;20606;-70
2023/01/05 06:32:26;;;;;;;6.27;1.57;;;20.60;99.90;;;;;;5073105;28;20273;-70
2023/01/05 06:34:53;;;;;;;8.83;1.60;;;20.50;99.90;;;;;;5073556;28;20180;-72
2023/01/05 06:37:21;;;;;;;6.20;1.40;;;20.50;99.90;;;;;;5081033;28;20238;-69
2023/01/05 06:39:48;;;;;;;9.07;1.70;;;20.40;99.90;;;;;;5092987;28;20176;-71
2023/01/05 06:42:16;;;;;;;5.53;1.37;;;20.50;99.90;;;;;;5093507;28;20201;-69
2023/01/05 06:44:43;;;;;;;12.17;1.90;;;20.50;99.90;;;;;;5093246;28;20671;-70
2023/01/05 06:47:11;;;;;;;5.20;1.40;;;20.50;99.90;;;;;;5082710;28;20194;-69
2023/01/05 06:49:38;;;;;;;8.33;1.73;;;20.50;99.90;;;;;;5073290;28;20178;-70
2023/01/05 06:52:05;;;;;;;7.27;1.13;;;20.30;99.90;;;;;;5072930;28;20270;-72
2023/01/05 06:54:33;;;;;;;6.10;1.40;;;;;;;;;;5072658;28;20670;-69
2023/01/05 06:57:00;;;;;;;5.60;1.77;;;20.40;99.90;;;;;;5081984;28;20299;-72
2023/01/05 06:59:27;;;;;;;8.83;1.80;;;20.30;99.90;;;;;;5085626;28;20200;-73
2023/01/05 07:01:55;;;;;;;10.17;4.37;;;20.30;99.90;;;;;;5086502;28;20189;-74
2023/01/05 07:04:22;;;;;;;14.17;4.67;;;20.20;99.90;;;;;;5080952;28;20200;-73
2023/01/05 07:06:50;;;;;;;16.93;5.67;;;20.10;99.90;;;;;;5080331;28;20600;-73
2023/01/05 07:09:17;;;;;;;9.50;2.40;;;20.00;99.90;;;;;;5092155;28;20176;-74
2023/01/05 07:11:44;;;;;;;9.30;2.63;;;19.90;99.90;;;;;;5092779;28;20610;-70
2023/01/05 07:14:12;;;;;;;8.70;2.10;;;19.90;99.90;;;;;;5092835;28;20532;-70
2023/01/05 07:16:39;;;;;;;9.70;2.30;;;19.90;99.90;;;;;;5086323;28;20704;-69
2023/01/05 07:19:07;;;;;;;91.70;45.43;;;19.80;99.90;;;;;;5072687;28;20229;-69
2023/01/05 07:21:34;;;;;;;15.63;4.07;;;19.80;99.90;;;;;;5073349;28;20183;-69
2023/01/05 07:24:02;;;;;;;8.10;1.90;;;19.80;99.90;;;;;;5074416;28;20186;-69
2023/01/05 07:26:30;;;;;;;13.17;3.43;;;19.80;99.90;;;;;;5092457;28;20243;-70
2023/01/05 07:28:57;;;;;;;15.90;3.50;;;19.70;99.90;;;;;;5092685;28;20178;-69
2023/01/05 07:31:24;;;;;;;10.87;2.30;;;19.70;99.90;;;;;;5080956;28;20192;-69
2023/01/05 07:33:52;;;;;;;17.47;7.00;;;19.70;99.90;;;;;;5072185;28;20653;-71
2023/01/05 07:36:21;;;;;;;14.60;2.77;;;19.80;99.90;;;;;;5074892;28;20297;-69
2023/01/05 07:38:48;;;;;;;14.03;2.87;;;19.80;99.90;;;;;;5079267;28;20272;-68
2023/01/05 07:41:15;;;;;;;9.50;2.50;;;19.70;99.90;;;;;;5081404;28;20202;-69
2023/01/05 07:43:43;;;;;;;11.43;2.07;;;19.70;99.90;;;;;;5092434;28;20548;-69
2023/01/05 07:46:10;;;;;;;7.97;2.17;;;19.70;99.90;;;;;;5088846;28;20187;-68
2023/01/05 07:48:40;;;;;;;9.93;2.60;;;19.80;99.90;;;;;;5083610;28;20209;-69
2023/01/05 07:51:07;;;;;;;11.40;2.33;;;;;;;;;;5091347;28;20223;-69
2023/01/05 07:53:37;;;;;;;11.47;2.00;;;;;;;;;;5091785;28;20200;-69
2023/01/05 07:56:05;;;;;;;9.50;1.90;;;;;;;;;;5091955;28;20202;-69
2023/01/05 07:58:32;;;;;;;9.23;2.07;;;19.80;99.90;;;;;;5092087;28;20201;-69
2023/01/05 08:01:05;;;;;;;9.90;2.07;;;19.70;99.90;;;;;;5084499;28;20649;-69
2023/01/05 08:03:32;;;;;;;11.97;2.10;;;19.60;99.90;;;;;;5070340;28;20176;-69
2023/01/05 08:06:05;;;;;;;6.77;1.60;;;19.60;99.90;;;;;;5070433;28;20187;-70
2023/01/05 08:08:32;;;;;;;10.33;1.70;;;19.50;99.90;;;;;;5071307;28;20176;-70
2023/01/05 08:11:02;;;;;;;6.60;1.77;;;19.50;99.90;;;;;;5075552;28;20262;-69
2023/01/05 08:16:15;;;;;;;9.10;1.70;;;19.50;99.90;;;;;;5091211;28;20210;-69
2023/01/05 08:18:43;;;;;;;7.83;1.83;;;19.60;99.90;;;;;;5085433;28;20282;-72
2023/01/05 08:21:10;;;;;;;6.37;1.97;;;19.60;99.90;;;;;;5076394;28;20171;-70
2023/01/05 08:23:38;;;;;;;11.30;2.03;;;19.60;99.90;;;;;;5078739;28;20176;-68
2023/01/05 08:26:13;;;;;;;9.47;1.90;;;19.50;99.90;;;;;;5079434;28;20193;-73
2023/01/05 08:28:41;;;;;;;5.53;1.53;;;19.50;99.90;;;;;;5075810;28;20210;-70
2023/01/05 08:31:22;;;;;;;10.67;1.63;;;19.40;99.90;;;;;;5071181;28;20543;-69
2023/01/05 08:33:49;;;;;;;10.13;2.23;;;19.40;99.90;;;;;;5071452;28;20258;-70
2023/01/05 08:36:19;;;;;;;13.03;2.00;;;19.40;99.90;;;;;;5069909;28;20207;-69
2023/01/05 08:38:52;;;;;;;11.20;2.00;;;19.40;99.90;;;;;;5087005;28;20605;-73
2023/01/05 08:41:23;;;;;;;9.80;1.67;;;19.40;99.90;;;;;;5086840;28;20176;-69
2023/01/05 08:43:52;;;;;;;6.97;1.77;;;19.40;99.90;;;;;;5071263;28;20208;-71
2023/01/05 08:46:23;;;;;;;10.97;1.80;;;19.30;99.90;;;;;;5072514;28;20179;-69
2023/01/05 08:48:52;;;;;;;9.47;1.73;;;19.20;99.90;;;;;;5072327;28;20166;-69
2023/01/05 08:51:19;;;;;;;4.47;1.40;;;19.20;99.90;;;;;;5078201;28;20633;-69
2023/01/05 08:53:48;;;;;;;6.20;1.50;;;19.20;99.90;;;;;;5089690;28;20244;-68
2023/01/05 08:56:15;;;;;;;6.77;1.80;;;19.10;99.90;;;;;;5090510;28;20213;-68
2023/01/05 08:58:43;;;;;;;8.20;2.00;;;19.00;99.90;;;;;;5081540;28;20308;-69
2023/01/05 09:01:13;;;;;;;7.90;1.83;;;19.00;99.90;;;;;;5084249;28;20645;-68
2023/01/05 09:03:41;;;;;;;4.30;1.50;;;19.00;99.90;;;;;;5091282;28;22286;-69
2023/01/05 09:06:10;;;;;;;8.00;1.87;;;18.90;99.90;;;;;;5091979;28;20504;-68
2023/01/05 09:08:40;;;;;;;6.07;1.47;;;18.80;99.90;;;;;;5081514;28;20176;-69
2023/01/05 09:11:15;;;;;;;9.07;2.07;;;18.80;99.90;;;;;;5080043;28;20187;-68
2023/01/05 09:13:46;;;;;;;8.00;1.77;;;18.80;99.90;;;;;;5074970;28;20191;-70
2023/01/05 09:16:17;;;;;;;8.80;1.93;;;18.80;99.90;;;;;;5086175;28;20206;-69
2023/01/05 09:18:45;;;;;;;11.93;2.10;;;18.80;99.90;;;;;;5091743;28;20187;-70
2023/01/05 09:21:13;;;;;;;6.33;1.80;;;18.80;99.90;;;;;;5092429;28;20180;-72
2023/01/05 09:23:41;;;;;;;10.33;1.77;;;18.80;99.90;;;;;;5089914;28;20195;-71
2023/01/05 09:26:11;;;;;;;5.67;1.70;;;18.80;99.90;;;;;;5080707;28;20269;-71
2023/01/05 09:28:38;;;;;;;9.80;1.63;;;18.80;99.90;;;;;;5085765;28;20653;-71
2023/01/05 09:31:20;;;;;;;8.30;1.87;;;18.70;99.90;;;;;;5095838;28;20580;-71
2023/01/05 09:33:48;;;;;;;8.93;1.67;;;18.70;99.90;;;;;;5084648;28;20199;-70
2023/01/05 09:36:17;;;;;;;8.97;1.87;;;18.70;99.90;;;;;;5087245;28;20213;-71
2023/01/05 09:38:49;;;;;;;12.43;1.93;;;18.60;99.90;;;;;;5095875;28;20707;-71
2023/01/05 09:41:39;;;;;;;9.47;2.07;;;18.60;99.90;;;;;;5081275;28;20179;-71
2023/01/05 09:44:19;;;;;;;6.07;1.40;;;18.60;99.90;;;;;;5075460;28;20176;-71
2023/01/05 09:46:49;;;;;;;10.40;1.77;;;18.60;99.90;;;;;;5091389;28;20175;-71
2023/01/05 09:49:21;;;;;;;11.80;1.90;;;18.60;99.90;;;;;;5095698;28;20513;-69
2023/01/05 09:51:54;;;;;;;14.23;2.50;;;18.60;99.90;;;;;;5095789;28;20179;-71
2023/01/05 09:54:23;;;;;;;8.30;2.27;;;18.60;99.90;;;;;;5095598;28;20240;-70
2023/01/05 09:56:51;;;;;;;11.13;2.33;;;18.60;99.90;;;;;;5078742;28;20216;-71
2023/01/05 09:59:30;;;;;;;13.33;2.67;;;18.50;99.90;;;;;;5075218;28;20234;-70
2023/01/05 10:02:25;;;;;;;8.57;1.60;;;18.50;99.90;;;;;;5082201;28;20651;-70
2023/01/05 10:04:54;;;;;;;13.40;1.97;;;18.50;99.90;;;;;;5075547;28;20186;-69
2023/01/05 10:07:35;;;;;;;9.53;1.93;;;18.50;99.90;;;;;;5094875;28;20655;-69
2023/01/05 10:10:12;;;;;;;5.67;1.60;;;18.50;99.90;;;;;;5093863;28;20636;-70
2023/01/05 10:13:02;;;;;;;8.60;2.10;;;18.50;99.90;;;;;;5094662;28;20254;-70
2023/01/05 10:15:52;;;;;;;3.53;1.27;;;18.50;99.90;;;;;;5091111;28;20184;-69
2023/01/05 10:18:25;;;;;;;7.10;1.77;;;18.50;99.90;;;;;;5074943;28;20252;-68
2023/01/05 10:21:10;;;;;;;9.17;1.90;;;18.50;99.90;;;;;;5081023;28;20179;-68
2023/01/05 10:24:04;;;;;;;9.10;1.83;;;18.40;99.90;;;;;;5084956;28;20234;-69
2023/01/05 10:26:45;;;;;;;8.77;2.10;;;18.50;99.90;;;;;;5086245;28;20184;-69
2023/01/05 10:29:16;;;;;;;7.17;1.90;;;18.50;99.90;;;;;;5095099;28;20587;-70
2023/01/05 10:32:06;;;;;;;4.90;1.63;;;18.40;99.90;;;;;;5093700;28;20215;-69
2023/01/05 10:34:51;;;;;;;6.90;2.27;;;18.40;99.90;;;;;;5081242;28;20187;-69
2023/01/05 10:37:56;;;;;;;9.17;1.73;;;18.50;99.90;;;;;;5091663;28;20213;-69
2023/01/05 10:40:38;;;;;;;10.57;1.67;;;18.40;99.90;;;;;;5093984;28;20194;-68
2023/01/05 10:43:12;;;;;;;9.13;2.07;;;18.40;99.90;;;;;;5094780;28;20280;-70
2023/01/05 10:45:42;;;;;;;7.90;1.77;;;18.40;99.90;;;;;;5091749;28;20263;-69
2023/01/05 10:48:18;;;;;;;12.23;1.60;;;18.40;99.90;;;;;;5074370;28;20213;-70
2023/01/05 10:50:48;;;;;;;10.57;1.77;;;18.30;99.90;;;;;;5074214;28;20176;-68
2023/01/05 10:53:20;;;;;;;12.80;1.47;;;;;;;;;;5081926;28;20668;-69
2023/01/05 10:55:56;;;;;;;7.43;1.60;;;18.20;99.90;;;;;;5090717;28;20230;-68
2023/01/05 10:58:31;;;;;;;6.13;1.70;;;18.20;99.90;;;;;;5073969;28;20187;-70
2023/01/05 11:01:06;;;;;;;8.80;1.67;;;18.20;99.90;;;;;;5074017;28;20171;-70
2023/01/05 11:03:39;;;;;;;8.67;2.07;;;18.20;99.90;;;;;;5076561;28;20219;-68
2023/01/05 11:06:08;;;;;;;8.27;2.13;;;18.10;99.90;;;;;;5088814;28;20183;-70
2023/01/05 11:08:37;;;;;;;9.50;1.53;;;18.10;99.90;;;;;;5092662;28;20179;-69
2023/01/05 11:11:07;;;;;;;5.60;1.40;;;18.10;99.90;;;;;;5093742;28;20673;-70
2023/01/05 11:13:41;;;;;;;4.50;1.50;;;18.00;99.90;;;;;;5080949;28;20192;-69
2023/01/05 11:16:26;;;;;;;5.93;1.50;;;17.90;99.90;;;;;;5079885;28;20776;-68
2023/01/05 11:18:57;;;;;;;9.83;1.20;;;17.90;99.90;;;;;;5092609;28;20188;-69
2023/01/05 11:21:27;;;;;;;4.93;1.60;;;17.90;99.90;;;;;;5085210;28;20176;-70
2023/01/05 11:23:57;;;;;;;9.10;1.90;;;17.90;99.90;;;;;;5092006;28;20530;-70
2023/01/05 11:26:29;;;;;;;5.77;1.60;;;;;;;;;;5087724;28;20187;-71
2023/01/05 11:29:10;;;;;;;4.00;1.20;;;17.70;99.90;;;;;;5073369;28;20594;-72
2023/01/05 11:31:56;;;;;;;10.13;2.00;;;;;;;;;;5073568;28;20217;-69
2023/01/05 11:34:45;;;;;;;6.87;1.47;;;17.50;99.90;;;;;;5073505;28;20172;-70
2023/01/05 11:37:29;;;;;;;8.77;1.67;;;17.50;99.90;;;;;;5082690;28;20222;-70
2023/01/05 11:40:03;;;;;;;7.83;1.97;;;17.30;99.90;;;;;;5093392;28;20249;-70
2023/01/05 11:42:34;;;;;;;6.73;2.27;;;17.30;99.90;;;;;;5073418;28;20168;-70
2023/01/05 11:45:04;;;;;;;8.33;1.50;;;17.20;99.90;;;;;;5073814;28;20215;-69
2023/01/05 11:47:38;;;;;;;6.87;1.97;;;17.10;99.90;;;;;;5085292;28;20282;-70
2023/01/05 11:50:13;;;;;;;7.33;1.90;;;17.10;99.90;;;;;;5092948;28;20179;-69
2023/01/05 11:52:44;;;;;;;9.90;1.83;;;17.00;99.90;;;;;;5093946;28;20183;-69
2023/01/05 11:55:21;;;;;;;9.37;1.80;;;17.00;99.90;;;;;;5092131;28;20179;-70
2023/01/05 11:57:51;;;;;;;8.17;1.67;;;16.90;99.90;;;;;;5073422;28;20207;-70
2023/01/05 12:00:25;;;;;;;9.80;2.10;;;16.90;99.90;;;;;;5073085;28;20616;-70
2023/01/05 12:03:30;;;;;;;10.70;1.63;;;16.90;99.90;;;;;;5072993;28;20186;-68
2023/01/05 12:06:04;;;;;;;7.10;1.40;;;16.90;99.90;;;;;;5073536;28;20176;-74
2023/01/05 12:09:00;;;;;;;8.07;1.50;;;16.90;99.90;;;;;;5092357;28;20640;-68
2023/01/05 12:11:37;;;;;;;8.23;1.60;;;16.90;99.90;;;;;;5075402;28;20218;-70
2023/01/05 12:14:10;;;;;;;8.30;1.70;;;16.90;99.90;;;;;;5071468;28;20557;-70
2023/01/05 12:16:48;;;;;;;3.77;1.20;;;16.80;99.90;;;;;;5074796;28;20334;-69
2023/01/05 12:19:32;;;;;;;6.77;1.23;;;16.80;99.90;;;;;;5091779;28;20545;-69
2023/01/05 12:22:20;;;;;;;6.77;1.80;;;16.80;99.90;;;;;;5093087;28;20167;-69
2023/01/05 12:25:09;;;;;;;8.77;1.67;;;16.80;99.90;;;;;;5093466;28;20257;-68
2023/01/05 12:28:04;;;;;;;8.50;1.50;;;16.70;99.90;;;;;;5080859;28;20551;-69
2023/01/05 12:30:39;;;;;;;9.10;1.80;;;16.70;99.90;;;;;;5073895;28;20179;-69
2023/01/05 12:33:31;;;;;;;6.00;1.63;;;16.70;99.90;;;;;;5080050;28;20675;-68
2023/01/05 12:36:20;;;;;;;7.93;1.67;;;16.60;99.90;;;;;;5093486;28;20167;-69
2023/01/05 12:39:28;;;;;;;7.20;1.30;;;16.60;99.90;;;;;;5073094;28;20184;-70
2023/01/05 12:41:56;;;;;;;6.87;1.43;;;16.60;99.90;;;;;;5073065;28;20168;-69
2023/01/05 12:45:04;;;;;;;6.80;1.53;;;16.70;99.90;;;;;;5072875;28;20637;-68
2023/01/05 12:47:54;;;;;;;5.87;1.63;;;16.60;99.90;;;;;;5085576;28;20197;-69
2023/01/05 12:50:25;;;;;;;7.77;1.67;;;16.60;99.90;;;;;;5093104;28;20176;-68
2023/01/05 12:53:22;;;;;;;4.60;1.27;;;16.60;99.90;;;;;;5092805;28;20171;-67
2023/01/05 12:55:57;;;;;;;6.73;1.70;;;16.70;99.90;;;;;;5053434;28;20600;-68
2023/01/05 12:58:37;;;;;;;5.03;1.20;;;16.60;99.90;;;;;;5072655;28;20608;-68
2023/01/05 13:01:12;;;;;;;3.63;1.13;;;16.60;99.90;;;;;;5073565;28;20263;-68
2023/01/05 13:03:57;;;;;;;11.53;2.33;;;16.60;99.90;;;;;;5076049;28;20206;-68
2023/01/05 13:06:30;;;;;;;12.37;1.50;;;16.60;99.90;;;;;;5079848;28;20172;-68
2023/01/05 13:09:21;;;;;;;4.83;1.47;;;16.50;99.90;;;;;;5096731;28;20534;-69
2023/01/05 13:12:14;;;;;;;6.30;1.33;;;16.60;99.90;;;;;;5096842;28;20306;-68
2023/01/05 13:15:01;;;;;;;6.27;1.27;;;16.60;99.90;;;;;;5096440;28;20652;-68
2023/01/05 13:17:36;;;;;;;8.17;1.40;;;16.60;99.90;;;;;;5086660;28;20212;-68
2023/01/05 13:20:09;;;;;;;7.43;1.83;;;16.70;99.90;;;;;;5076032;28;20652;-69
2023/01/05 13:22:40;;;;;;;7.00;1.70;;;16.70;99.90;;;;;;5076088;28;20172;-68
2023/01/05 13:25:17;;;;;;;4.77;1.47;;;16.70;99.90;;;;;;5058475;28;20237;-69
2023/01/05 13:27:45;;;;;;;4.17;1.67;;;16.70;99.90;;;;;;5085236;28;20187;-69
2023/01/05 13:30:20;;;;;;;4.37;1.20;;;16.80;99.90;;;;;;5096165;28;20178;-69
2023/01/05 13:33:01;;;;;;;5.33;1.07;;;16.80;99.90;;;;;;5096572;28;20183;-69
2023/01/05 13:35:53;;;;;;;7.57;1.20;;;16.80;99.90;;;;;;5096457;28;20554;-69
2023/01/05 13:38:52;;;;;;;11.03;1.37;;;16.80;99.90;;;;;;5084502;28;20215;-69
2023/01/05 13:41:52;;;;;;;5.20;1.37;;;16.80;99.90;;;;;;5075845;28;20203;-70
2023/01/05 13:44:23;;;;;;;5.73;1.60;;;16.80;99.90;;;;;;5067779;28;20192;-68
2023/01/05 13:47:24;;;;;;;6.37;1.50;;;16.90;99.90;;;;;;5075755;28;20207;-69